Time;durP1;ratioP1;P1;durP2;ratioP2;P2;SDS_P1;SDS_P2;PMS_P1;PMS_P2;Temp;Humidity;BMP_temperature;BMP_pressure;BME280_temperature;BME280_humidity;BME280_pressure;Samples;Min_cycle;Max_cycle;Signal;HPM_P1;HPM_P2
2022/07/11 00:02:09;;;;;;;1.67;0.60;;;;;;;15.10;66.41;97272.19;5071384;28;20060;-66
2022/07/11 00:04:35;;;;;;;2.83;1.13;;;;;;;15.15;66.89;97271.06;5071611;28;20036;-66
2022/07/11 00:07:01;;;;;;;4.60;1.10;;;;;;;15.23;65.61;97273.50;5061156;28;20418;-66
2022/07/11 00:09:27;;;;;;;3.33;0.70;;;;;;;15.44;63.80;97261.00;5080924;28;20067;-66
2022/07/11 00:11:53;;;;;;;3.78;1.30;;;;;;;15.47;63.38;97263.00;5070728;23;20060;-64
2022/07/11 00:14:19;;;;;;;3.97;0.95;;;;;;;15.36;63.61;97253.84;5066418;28;20424;-64
2022/07/11 00:16:45;;;;;;;6.03;1.15;;;;;;;15.25;62.84;97259.28;5050075;28;20068;-64
2022/07/11 00:19:11;;;;;;;2.65;0.80;;;;;;;14.89;64.67;97254.31;5051068;28;20504;-62
2022/07/11 00:21:36;;;;;;;4.82;1.23;;;;;;;14.47;66.69;97257.44;5050979;28;20481;-62
2022/07/11 00:24:03;;;;;;;2.38;0.60;;;;;;;14.43;66.77;97251.88;5050768;28;20056;-64
2022/07/11 00:26:28;;;;;;;2.25;0.75;;;;;;;14.32;67.24;97249.03;5050624;28;20036;-62
2022/07/11 00:28:54;;;;;;;3.15;0.70;;;;;;;14.34;68.17;97246.69;5049547;28;20029;-64
2022/07/11 00:31:20;;;;;;;4.00;1.00;;;;;;;14.39;68.21;97251.06;5050866;28;20033;-64
2022/07/11 00:33:45;;;;;;;3.83;1.05;;;;;;;14.40;68.20;97238.84;5050892;28;20029;-63
2022/07/11 00:36:11;;;;;;;3.53;0.85;;;;;;;14.41;68.38;97245.97;5050724;28;20116;-63
2022/07/11 00:38:37;;;;;;;4.90;1.27;;;;;;;14.38;69.65;97243.16;5033102;28;20039;-63
2022/07/11 00:41:02;;;;;;;4.05;1.15;;;;;;;14.44;70.84;97241.66;5050722;28;20040;-64
2022/07/11 00:43:36;;;;;;;3.47;0.95;;;;;;;14.44;70.71;97242.47;5050679;28;20493;-64
2022/07/11 00:46:03;;;;;;;6.82;0.70;;;;;;;14.38;71.55;97243.97;5049589;28;20056;-63
2022/07/11 00:48:29;;;;;;;3.17;0.90;;;;;;;14.30;72.42;97251.38;5049472;28;20108;-64
2022/07/11 00:50:55;;;;;;;2.72;0.80;;;;;;;14.03;73.66;97244.38;5051571;28;20111;-64
2022/07/11 00:53:21;;;;;;;2.92;1.00;;;;;;;14.00;76.30;97245.13;5051745;28;20033;-63
2022/07/11 00:55:48;;;;;;;2.28;0.98;;;;;;;13.79;78.45;97242.91;5050858;28;20106;-64
2022/07/11 00:58:13;;;;;;;2.30;0.80;;;;;;;13.62;78.69;97249.78;5052245;28;20036;-64
2022/07/11 01:00:40;;;;;;;2.90;0.80;;;;;;;13.48;80.06;97240.16;5052117;28;20047;-64
2022/07/11 01:03:06;;;;;;;3.55;0.90;;;;;;;13.44;80.44;97233.81;5051942;28;20100;-65
2022/07/11 01:05:32;;;;;;;3.17;0.88;;;;;;;13.54;82.29;97238.69;5052853;28;20033;-64
2022/07/11 01:07:57;;;;;;;3.88;0.93;;;;;;;13.62;80.91;97236.81;5053037;28;20400;-63
2022/07/11 01:10:23;;;;;;;3.40;1.00;;;;;;;13.49;79.78;97239.00;5049406;28;20370;-63
2022/07/11 01:12:49;;;;;;;1.85;0.75;;;;;;;13.37;81.96;97231.75;5038212;28;20097;-65
2022/07/11 01:15:15;;;;;;;4.40;0.90;;;;;;;13.35;83.30;97236.06;5031121;28;20504;-64
2022/07/11 01:17:41;;;;;;;2.40;1.00;;;;;;;13.36;85.41;97227.44;5031052;28;20025;-65
2022/07/11 01:20:07;;;;;;;3.85;1.02;;;;;;;13.39;84.85;97229.41;5037211;28;20489;-64
2022/07/11 01:22:39;;;;;;;3.58;1.63;;;;;;;13.32;83.55;97229.31;5039629;28;20025;-63
2022/07/11 01:25:06;;;;;;;3.40;1.52;;;;;;;13.18;85.46;97235.41;5040768;28;20037;-64
2022/07/11 01:27:32;;;;;;;5.75;1.30;;;;;;;12.99;86.34;97228.03;5039743;28;20156;-65
2022/07/11 01:29:58;;;;;;;5.05;1.30;;;;;;;12.90;87.52;97229.47;5031177;28;20028;-65
2022/07/11 01:32:23;;;;;;;4.43;0.88;;;;;;;12.91;89.91;97225.53;5030876;28;20037;-64
2022/07/11 01:34:48;;;;;;;3.60;1.05;;;;;;;12.79;88.98;97221.81;5044798;28;20044;-65
2022/07/11 01:37:14;;;;;;;3.72;1.10;;;;;;;12.56;91.32;97216.34;5037731;28;20048;-64
2022/07/11 01:39:40;;;;;;;2.90;0.80;;;;;;;12.62;93.13;97219.56;5040782;28;20382;-64
2022/07/11 01:42:05;;;;;;;5.07;0.90;;;;;;;12.60;93.00;97222.72;5045058;28;20053;-64
2022/07/11 01:44:31;;;;;;;2.85;0.90;;;;;;;12.66;92.25;97225.13;5054696;28;20516;-65
2022/07/11 01:46:56;;;;;;;3.33;1.10;;;;;;;12.69;92.06;97216.16;5054271;28;20032;-64
2022/07/11 01:49:22;;;;;;;5.93;1.27;;;;;;;12.72;91.26;97226.44;5052129;28;20025;-64
2022/07/11 01:51:48;;;;;;;3.33;0.95;;;;;;;12.65;91.79;97221.59;5047125;28;20033;-64
2022/07/11 01:54:14;;;;;;;3.05;1.13;;;;;;;12.39;92.82;97219.59;5053598;28;20455;-64
2022/07/11 01:56:40;;;;;;;4.75;1.42;;;;;;;12.19;93.67;97216.09;5049973;28;20117;-65
2022/07/11 01:59:05;;;;;;;2.60;1.13;;;;;;;12.20;97.25;97223.97;5034486;28;20042;-63
2022/07/11 02:01:31;;;;;;;1.90;0.98;;;;;;;12.04;96.81;97215.81;5035432;28;20053;-64
2022/07/11 02:03:56;;;;;;;1.38;0.95;;;;;;;12.13;98.57;97212.84;5046342;28;20041;-64
2022/07/11 02:06:22;;;;;;;4.38;1.27;;;;;;;12.10;99.48;97218.28;5043745;28;20088;-63
2022/07/11 02:08:47;;;;;;;15.77;7.18;;;;;;;11.98;99.59;97211.00;5034335;28;20037;-65
2022/07/11 02:11:13;;;;;;;6.82;2.78;;;;;;;11.96;99.99;97210.59;5045541;28;20094;-64
2022/07/11 02:13:38;;;;;;;2.45;1.35;;;;;;;11.91;99.19;97208.13;5034464;28;20064;-64
2022/07/11 02:16:05;;;;;;;5.35;1.38;;;;;;;11.87;100.00;97208.03;5040429;28;20040;-65
2022/07/11 02:18:33;;;;;;;4.25;1.90;;;;;;;11.71;100.00;97205.34;5044877;28;20083;-65
2022/07/11 02:20:58;;;;;;;5.43;1.27;;;;;;;11.71;100.00;97205.34;5044354;28;20035;-65
2022/07/11 02:23:23;;;;;;;5.68;1.48;;;;;;;11.74;100.00;97203.81;5052568;28;20116;-65
2022/07/11 02:25:49;;;;;;;8.35;1.40;;;;;;;11.66;100.00;97202.91;5044669;28;20078;-64
2022/07/11 02:28:15;;;;;;;2.88;1.20;;;;;;;11.54;100.00;97203.84;5040392;28;20089;-64
2022/07/11 02:30:42;;;;;;;5.85;1.15;;;;;;;11.55;100.00;97207.38;5052111;28;20052;-64
2022/07/11 02:33:11;;;;;;;3.00;1.38;;;;;;;11.55;100.00;97202.69;5047927;28;20058;-65
2022/07/11 02:35:37;;;;;;;5.25;1.38;;;;;;;11.50;100.00;97210.41;5040329;28;20434;-65
2022/07/11 02:38:02;;;;;;;2.05;1.30;;;;;;;11.47;100.00;97200.97;5069268;28;20474;-64
2022/07/11 02:40:28;;;;;;;1.98;1.20;;;;;;;11.67;100.00;97196.28;5066351;28;20035;-64
2022/07/11 02:42:55;;;;;;;3.97;1.13;;;;;;;11.60;100.00;97193.38;5052775;28;20029;-65
2022/07/11 02:45:20;;;;;;;2.65;1.52;;;;;;;11.51;100.00;97196.34;5045446;28;20034;-62
2022/07/11 02:47:46;;;;;;;2.15;1.30;;;;;;;11.53;100.00;97204.22;5053554;28;20094;-65
2022/07/11 02:50:13;;;;;;;1.98;1.20;;;;;;;11.51;100.00;97204.56;5053390;28;20032;-64
2022/07/11 02:52:41;;;;;;;5.40;1.58;;;;;;;11.53;100.00;97196.78;5053426;28;20123;-64
2022/07/11 02:55:11;;;;;;;5.82;1.10;;;;;;;11.63;100.00;97201.69;5051697;28;20045;-64
2022/07/11 02:57:38;;;;;;;;;;;;;;;11.83;100.00;97199.72;5051711;28;20029;-62
2022/07/11 03:00:04;;;;;;;5.35;1.35;;;;;;;11.90;100.00;97207.31;5043551;28;19920;-63
2022/07/11 03:02:30;;;;;;;4.55;1.10;;;;;;;11.94;100.00;97202.69;5053222;28;20029;-64
2022/07/11 03:04:57;;;;;;;4.20;1.00;;;;;;;11.91;100.00;97202.63;5054227;28;20029;-62
2022/07/11 03:07:24;;;;;;;2.38;1.45;;;;;;;11.85;100.00;97211.13;5060403;28;20366;-63
2022/07/11 03:09:49;;;;;;;4.60;1.30;;;;;;;11.85;100.00;97207.59;5047940;28;20052;-63
2022/07/11 03:12:14;;;;;;;4.05;1.70;;;;;;;11.78;100.00;97210.19;5044778;28;20033;-65
2022/07/11 03:14:40;;;;;;;2.67;1.13;;;;;;;11.77;100.00;97203.91;5048064;28;20036;-64
2022/07/11 03:17:05;;;;;;;3.72;1.20;;;;;;;11.69;100.00;97206.88;5047992;28;20209;-65
2022/07/11 03:19:30;;;;;;;4.22;1.10;;;;;;;11.60;100.00;97196.91;5052782;28;20028;-64
2022/07/11 03:21:56;;;;;;;3.88;1.20;;;;;;;11.58;100.00;97203.94;5046303;28;20033;-64
2022/07/11 03:24:21;;;;;;;2.60;1.25;;;;;;;11.48;100.00;97203.31;5043502;28;20024;-64
2022/07/11 03:26:46;;;;;;;2.30;1.00;;;;;;;11.47;100.00;97203.72;5047331;28;20033;-64
2022/07/11 03:29:12;;;;;;;2.80;1.05;;;;;;;11.50;100.00;97202.19;5031765;28;20030;-64
2022/07/11 03:31:37;;;;;;;3.10;1.10;;;;;;;11.53;100.00;97194.03;5034055;28;20083;-65
2022/07/11 03:34:02;;;;;;;13.98;1.88;;;;;;;11.38;100.00;97194.88;5036802;28;20028;-63
2022/07/11 03:36:28;;;;;;;2.58;1.40;;;;;;;11.37;100.00;97199.56;5050803;28;20398;-65
2022/07/11 03:38:53;;;;;;;2.20;1.10;;;;;;;11.21;100.00;97191.38;5048991;28;20041;-63
2022/07/11 03:41:19;;;;;;;5.57;1.40;;;;;;;11.25;100.00;97184.06;5051903;28;20485;-65
2022/07/11 03:43:44;;;;;;;2.20;1.10;;;;;;;11.20;100.00;97189.81;5032962;28;20025;-65
2022/07/11 03:46:10;;;;;;;3.70;1.10;;;;;;;11.22;100.00;97194.94;5031312;28;20876;-65
2022/07/11 03:48:35;;;;;;;3.33;1.30;;;;;;;11.22;100.00;97183.97;5047722;28;20069;-64
2022/07/11 03:51:01;;;;;;;2.92;1.23;;;;;;;11.19;100.00;97176.47;5032088;28;20037;-64
2022/07/11 03:53:27;;;;;;;5.13;1.60;;;;;;;11.36;100.00;97184.28;5040519;28;20033;-65
2022/07/11 03:55:53;;;;;;;5.25;1.52;;;;;;;11.58;100.00;97190.22;5050457;28;20041;-64
2022/07/11 03:58:18;;;;;;;2.85;1.10;;;;;;;11.82;100.00;97189.88;5016497;28;20029;-63
2022/07/11 04:00:43;;;;;;;5.07;1.50;;;;;;;11.97;100.00;97187.44;5031985;28;20036;-65
2022/07/11 04:03:10;;;;;;;4.97;1.10;;;;;;;12.00;99.81;97184.75;5052431;28;20032;-66
2022/07/11 04:05:35;;;;;;;3.40;1.25;;;;;;;12.01;100.00;97191.03;5043104;28;20075;-66
2022/07/11 04:08:01;;;;;;;2.63;1.00;;;;;;;12.14;99.32;97183.47;5049066;28;20806;-66
2022/07/11 04:10:26;;;;;;;3.55;1.15;;;;;;;12.30;97.87;97180.56;5048252;28;20047;-63
2022/07/11 04:12:53;;;;;;;2.38;1.17;;;;;;;12.46;96.37;97185.94;5045719;28;20027;-64
2022/07/11 04:15:18;;;;;;;7.88;1.52;;;;;;;12.71;93.86;97189.09;5050923;28;20461;-63
2022/07/11 04:17:44;;;;;;;3.97;0.90;;;;;;;12.81;92.63;97194.75;5040356;28;20025;-65
2022/07/11 04:20:10;;;;;;;1.48;0.95;;;;;;;13.03;91.14;97189.59;5032914;28;20677;-63
2022/07/11 04:22:35;;;;;;;4.93;1.30;;;;;;;13.25;90.08;97193.41;5040568;28;20022;-65
2022/07/11 04:25:01;;;;;;;4.22;1.23;;;;;;;13.44;89.06;97191.75;5039461;28;20037;-64
2022/07/11 04:27:26;;;;;;;5.93;1.55;;;;;;;13.55;87.74;97190.72;5039957;28;20061;-62
2022/07/11 04:29:52;;;;;;;4.70;1.75;;;;;;;13.70;87.19;97197.19;5031839;28;20084;-64
2022/07/11 04:32:17;;;;;;;5.80;1.52;;;;;;;13.88;85.87;97200.16;5037744;28;20037;-63
2022/07/11 04:34:43;;;;;;;4.80;1.33;;;;;;;14.04;84.84;97205.44;5041827;28;20037;-62
2022/07/11 04:37:08;;;;;;;4.05;0.95;;;;;;;14.15;83.19;97208.28;5040061;28;20389;-62
2022/07/11 04:39:33;;;;;;;3.55;1.30;;;;;;;13.53;81.16;97198.56;5040717;28;20037;-63
2022/07/11 04:42:00;;;;;;;4.63;1.42;;;;;;;13.55;81.89;97204.47;5043083;28;20033;-63
2022/07/11 04:44:27;;;;;;;3.92;0.88;;;;;;;13.61;80.86;97209.66;5051602;28;20029;-64
2022/07/11 04:46:52;;;;;;;3.35;0.90;;;;;;;13.86;78.82;97205.22;5045880;28;20493;-64
2022/07/11 04:49:18;;;;;;;2.50;1.10;;;;;;;13.79;78.22;97201.59;5047449;28;20037;-64
2022/07/11 04:51:44;;;;;;;2.72;1.02;;;;;;;13.82;77.35;97206.38;5038127;28;20117;-64
2022/07/11 04:54:09;;;;;;;5.20;0.90;;;;;;;13.95;77.24;97211.25;5030764;28;20049;-64
2022/07/11 04:56:35;;;;;;;3.40;0.80;;;;;;;14.07;75.95;97204.69;5033913;28;20029;-64
2022/07/11 04:59:01;;;;;;;3.95;1.20;;;;;;;14.59;73.81;97209.56;5036935;28;20034;-65
2022/07/11 05:01:28;;;;;;;4.80;1.00;;;;;;;15.15;69.41;97205.63;5041543;28;20033;-64
2022/07/11 05:03:54;;;;;;;2.92;1.00;;;;;;;15.73;67.17;97208.69;5045700;28;20056;-64
2022/07/11 05:06:20;;;;;;;3.90;0.98;;;;;;;15.89;66.26;97202.88;5043275;28;20078;-63
2022/07/11 05:08:45;;;;;;;2.75;0.63;;;;;;;16.40;64.28;97205.38;5046613;28;20061;-64
2022/07/11 05:11:11;;;;;;;5.55;0.80;;;;;;;15.79;64.67;97209.91;5052637;28;20032;-64
2022/07/11 05:13:37;;;;;;;5.90;0.95;;;;;;;16.05;65.07;97208.84;5035328;28;20030;-64
2022/07/11 05:16:03;;;;;;;3.88;0.68;;;;;;;15.91;65.05;97211.56;5034688;28;20112;-63
2022/07/11 05:18:28;;;;;;;5.45;1.02;;;;;;;16.49;63.35;97212.47;5046516;28;20086;-64
2022/07/11 05:20:54;;;;;;;3.58;0.93;;;;;;;16.60;63.38;97204.97;5054674;28;20098;-63
2022/07/11 05:23:20;;;;;;;7.32;1.08;;;;;;;16.49;62.26;97204.97;5054056;28;20024;-64
2022/07/11 05:25:45;;;;;;;3.67;1.08;;;;;;;16.79;62.16;97212.09;5039435;28;20037;-65
2022/07/11 05:28:10;;;;;;;6.25;1.48;;;;;;;16.58;62.70;97221.16;5055087;28;20029;-63
2022/07/11 05:30:36;;;;;;;2.42;0.98;;;;;;;16.26;63.05;97216.41;5055171;28;20056;-65
2022/07/11 05:33:01;;;;;;;8.77;1.20;;;;;;;16.78;61.73;97221.56;5062268;28;20056;-63
2022/07/11 05:35:27;;;;;;;3.42;1.13;;;;;;;16.94;61.29;97221.19;5055298;28;20060;-64
2022/07/11 05:37:52;;;;;;;4.05;0.90;;;;;;;16.57;63.09;97222.38;5049774;28;20061;-64
2022/07/11 05:40:18;;;;;;;4.32;1.23;;;;;;;16.40;63.41;97213.66;5044368;28;20025;-65
2022/07/11 05:42:43;;;;;;;4.45;1.13;;;;;;;17.16;60.41;97221.97;5056472;28;20033;-64
2022/07/11 05:45:09;;;;;;;3.25;0.77;;;;;;;17.38;59.81;97231.81;5055109;28;20079;-64
2022/07/11 05:47:35;;;;;;;3.72;0.88;;;;;;;16.90;61.63;97220.41;5048245;28;20412;-64
2022/07/11 05:50:00;;;;;;;3.22;0.90;;;;;;;17.45;59.63;97219.97;5041543;28;20035;-65
2022/07/11 05:52:25;;;;;;;1.58;0.63;;;;;;;17.61;59.20;97216.75;5034498;28;20079;-65
2022/07/11 05:54:51;;;;;;;3.13;0.80;;;;;;;17.41;59.98;97229.44;5036559;28;20037;-64
2022/07/11 05:57:16;;;;;;;3.55;0.90;;;;;;;17.27;60.22;97224.72;5044967;28;20064;-65
2022/07/11 05:59:42;;;;;;;3.03;0.55;;;;;;;17.07;60.64;97222.41;5034404;28;20497;-64
2022/07/11 06:02:07;;;;;;;8.23;1.30;;;;;;;16.94;61.08;97216.47;5044108;28;20569;-64
2022/07/11 06:04:33;;;;;;;2.42;0.90;;;;;;;16.81;60.94;97229.09;5044750;28;20041;-64
2022/07/11 06:06:59;;;;;;;3.20;0.82;;;;;;;17.78;59.37;97221.41;5045128;28;20034;-64
2022/07/11 06:09:25;;;;;;;5.18;1.08;;;;;;;17.62;59.02;97214.75;5058726;28;20115;-65
2022/07/11 06:11:51;;;;;;;4.20;0.90;;;;;;;17.86;57.72;97224.19;5040537;28;20037;-66
2022/07/11 06:14:17;;;;;;;7.38;1.35;;;;;;;18.67;56.10;97222.16;5038557;28;20485;-66
2022/07/11 06:16:43;;;;;;;2.95;0.70;;;;;;;18.14;58.38;97224.06;5065897;23;20044;-69
2022/07/11 06:19:08;;;;;;;2.95;0.90;;;;;;;18.75;56.01;97222.88;5053521;28;20043;-68
2022/07/11 06:21:34;;;;;;;5.30;1.20;;;;;;;18.05;59.11;97223.72;5053386;28;20033;-70
2022/07/11 06:23:59;;;;;;;5.30;0.90;;;;;;;18.20;57.89;97220.88;5042964;28;20033;-69
2022/07/11 06:26:24;;;;;;;5.15;0.80;;;;;;;18.00;57.55;97228.88;5045568;28;20056;-69
2022/07/11 06:28:50;;;;;;;2.90;0.90;;;;;;;18.29;57.02;97223.97;5048972;28;20046;-69
2022/07/11 06:31:16;;;;;;;3.40;0.85;;;;;;;17.82;58.75;97221.41;5022392;28;20120;-70
2022/07/11 06:33:42;;;;;;;6.95;1.48;;;;;;;17.92;57.85;97217.84;5051729;28;20053;-69
2022/07/11 06:36:07;;;;;;;7.60;1.10;;;;;;;17.69;58.50;97228.59;5031990;28;20041;-70
2022/07/11 06:38:33;;;;;;;4.07;0.95;;;;;;;17.82;59.01;97228.94;5033212;28;20041;-69
2022/07/11 06:41:00;;;;;;;7.20;1.10;;;;;;;18.13;58.45;97230.00;5038971;28;20427;-70
2022/07/11 06:43:25;;;;;;;3.92;1.00;;;;;;;19.13;55.90;97225.78;5057062;28;20045;-69
2022/07/11 06:45:51;;;;;;;2.20;0.70;;;;;;;18.94;55.03;97227.09;5048831;28;20489;-70
2022/07/11 06:48:16;;;;;;;6.65;0.90;;;;;;;19.03;54.91;97213.56;5043561;28;20067;-71
2022/07/11 06:50:43;;;;;;;7.25;1.30;;;;;;;18.67;54.67;97229.69;5044749;28;20056;-71
2022/07/11 06:53:08;;;;;;;4.20;1.13;;;;;;;18.62;55.40;97228.13;5031982;28;20390;-70
2022/07/11 06:55:34;;;;;;;5.13;1.00;;;;;;;19.13;53.70;97220.22;5022887;28;20045;-69
2022/07/11 06:58:00;;;;;;;7.43;0.90;;;;;;;18.73;52.88;97228.06;5027117;28;20053;-69
2022/07/11 07:00:27;;;;;;;4.63;1.30;;;;;;;18.54;54.86;97232.94;5028555;28;20375;-69
2022/07/11 07:02:56;;;;;;;2.97;0.95;;;;;;;18.62;55.54;97230.91;5025247;28;20037;-70
2022/07/11 07:05:24;;;;;;;9.25;1.65;;;;;;;19.58;52.19;97217.38;5034124;28;20950;-70
2022/07/11 07:07:51;;;;;;;12.55;6.40;;;;;;;19.45;54.15;97236.56;5039523;28;20095;-70
2022/07/11 07:10:16;;;;;;;3.70;0.90;;;;;;;19.33;50.83;97223.19;5029124;28;20055;-69
2022/07/11 07:12:42;;;;;;;5.00;1.15;;;;;;;19.51;49.89;97222.22;5025860;28;20045;-69
2022/07/11 07:15:09;;;;;;;3.50;0.80;;;;;;;19.13;50.17;97230.53;5014867;28;20482;-70
2022/07/11 07:17:34;;;;;;;1.92;0.95;;;;;;;19.21;50.75;97226.47;5022071;28;20064;-70
2022/07/11 07:20:00;;;;;;;5.63;0.85;;;;;;;19.70;49.70;97234.72;5017822;28;20100;-70
2022/07/11 07:22:25;;;;;;;4.32;0.80;;;;;;;19.52;48.83;97235.72;5036176;28;20080;-69
2022/07/11 07:24:51;;;;;;;2.92;0.75;;;;;;;18.60;50.56;97235.28;5022881;28;20398;-69
2022/07/11 07:27:16;;;;;;;4.95;0.93;;;;;;;18.87;51.69;97235.50;5033997;28;20052;-69
2022/07/11 07:29:42;;;;;;;7.78;1.05;;;;;;;18.87;51.45;97239.09;5052991;28;20072;-68
2022/07/11 07:32:07;;;;;;;6.00;1.00;;;;;;;19.37;50.94;97231.50;5053531;28;20043;-69
2022/07/11 07:34:33;;;;;;;3.90;0.90;;;;;;;19.94;48.92;97230.88;5054206;28;20049;-68
2022/07/11 07:36:59;;;;;;;4.13;0.90;;;;;;;19.57;46.93;97232.50;5048408;28;20045;-70
2022/07/11 07:39:25;;;;;;;2.08;0.68;;;;;;;19.61;47.06;97229.66;5031151;28;20048;-70
2022/07/11 07:41:50;;;;;;;5.35;1.08;;;;;;;19.93;47.54;97236.84;5026865;28;20041;-67
2022/07/11 07:44:16;;;;;;;3.88;0.90;;;;;;;19.91;48.18;97237.28;5032554;28;20041;-69
2022/07/11 07:46:41;;;;;;;3.17;0.80;;;;;;;19.89;47.14;97244.47;5025001;28;20041;-69
2022/07/11 07:49:06;;;;;;;4.72;0.70;;;;;;;20.36;46.02;97231.53;5026014;28;20037;-69
2022/07/11 07:51:33;;;;;;;1.83;0.52;;;;;;;20.48;47.91;97232.19;5031669;28;20045;-71
2022/07/11 07:53:58;;;;;;;8.07;1.42;;;;;;;21.82;44.37;97231.53;5028944;28;20052;-70
2022/07/11 07:56:24;;;;;;;2.75;0.80;;;;;;;21.24;44.85;97224.22;5032972;28;20461;-70
2022/07/11 07:58:51;;;;;;;1.35;0.50;;;;;;;20.35;46.31;97231.97;5035476;28;20450;-70
2022/07/11 08:01:35;;;;;;;3.08;0.60;;;;;;;20.24;45.26;97227.31;5026308;28;20044;-70
2022/07/11 08:04:10;;;;;;;3.63;0.50;;;;;;;20.16;45.96;97228.63;5038768;28;20056;-69
2022/07/11 08:06:37;;;;;;;2.00;0.50;;;;;;;19.74;46.94;97222.41;5052535;28;20045;-69
2022/07/11 08:09:04;;;;;;;3.65;0.60;;;;;;;20.57;47.00;97221.31;5034300;28;20040;-70
2022/07/11 08:11:30;;;;;;;3.72;0.60;;;;;;;20.69;45.54;97217.16;5050742;28;20045;-69
2022/07/11 08:13:57;;;;;;;3.83;0.60;;;;;;;20.64;44.75;97224.00;5056442;28;20141;-71
2022/07/11 08:16:23;;;;;;;1.63;0.60;;;;;;;20.96;45.02;97220.72;5030688;28;20281;-68
2022/07/11 08:18:48;;;;;;;2.50;0.50;;;;;;;21.30;44.84;97214.16;5038615;28;20045;-69
2022/07/11 08:21:14;;;;;;;1.48;0.45;;;;;;;21.30;43.40;97213.34;5033862;28;20053;-69
2022/07/11 08:23:39;;;;;;;3.75;0.50;;;;;;;23.05;41.34;97217.28;5031057;28;20131;-69
2022/07/11 08:26:05;;;;;;;4.35;1.17;;;;;;;21.86;41.99;97215.50;5026595;28;20136;-69
2022/07/11 08:28:30;;;;;;;2.72;0.60;;;;;;;20.95;43.12;97224.69;5029409;28;20041;-68
2022/07/11 08:30:56;;;;;;;3.80;0.80;;;;;;;19.97;46.74;97213.38;5029975;28;20053;-71
2022/07/11 08:33:21;;;;;;;2.33;0.47;;;;;;;22.09;42.92;97221.03;5021554;28;20545;-68
2022/07/11 08:35:46;;;;;;;1.40;0.47;;;;;;;22.03;43.12;97225.53;5026480;28;20075;-69
2022/07/11 08:38:12;;;;;;;2.13;0.47;;;;;;;23.18;40.66;97219.38;5021592;28;20041;-68
2022/07/11 08:40:40;;;;;;;7.85;0.70;;;;;;;22.64;41.78;97220.63;5026605;28;20079;-69
2022/07/11 08:43:14;;;;;;;1.63;0.50;;;;;;;24.07;39.56;97220.97;5019590;28;20045;-69
2022/07/11 08:45:40;;;;;;;7.70;0.93;;;;;;;25.30;36.74;97211.13;5031989;28;20045;-69
2022/07/11 08:48:07;;;;;;;3.78;0.60;;;;;;;24.92;35.99;97216.75;5023477;28;20045;-69
2022/07/11 08:50:32;;;;;;;2.30;0.65;;;;;;;24.32;37.45;97225.81;5036104;28;20502;-70
2022/07/11 08:52:58;;;;;;;6.20;1.08;;;;;;;22.28;41.59;97218.66;5037757;28;20067;-68
2022/07/11 08:55:24;;;;;;;1.80;0.75;;;;;;;22.32;42.69;97222.16;5034000;28;20696;-69
2022/07/11 08:57:50;;;;;;;2.90;0.57;;;;;;;23.49;40.51;97214.16;5027513;28;20041;-69
2022/07/11 09:00:16;;;;;;;4.03;1.08;;;;;;;22.71;41.03;97218.47;5019708;28;20052;-67
2022/07/11 09:02:43;;;;;;;4.70;0.60;;;;;;;21.92;41.35;97211.00;5030576;28;20041;-69
2022/07/11 09:05:09;;;;;;;2.28;0.50;;;;;;;23.03;39.39;97213.31;5019015;28;20505;-70
2022/07/11 09:07:43;;;;;;;2.13;0.70;;;;;;;23.08;41.28;97208.03;5032250;28;20049;-70
2022/07/11 09:10:08;;;;;;;3.20;0.50;;;;;;;21.39;42.59;97202.44;5020769;28;20048;-70
2022/07/11 09:12:34;;;;;;;2.17;0.70;;;;;;;20.89;44.68;97203.34;5031876;28;20049;-69
2022/07/11 09:15:00;;;;;;;5.00;0.70;;;;;;;22.27;44.30;97206.72;5024147;28;20041;-69
2022/07/11 09:17:32;;;;;;;2.83;0.70;;;;;;;21.70;44.08;97207.88;5024063;28;20049;-70
2022/07/11 09:19:57;;;;;;;1.35;0.50;;;;;;;21.47;43.97;97198.34;5037921;28;20078;-68
2022/07/11 09:25:23;;;;;;;4.65;0.73;;;;;;;21.08;45.67;97199.81;5026455;28;20060;-69
2022/07/11 09:28:01;;;;;;;2.53;0.65;;;;;;;20.93;45.71;97195.72;5033646;28;20048;-69
2022/07/11 09:30:30;;;;;;;2.13;0.70;;;;;;;21.24;46.69;97193.56;5031102;28;20673;-69
2022/07/11 09:33:05;;;;;;;3.22;0.70;;;;;;;20.75;46.41;97196.78;5033655;28;20056;-66
2022/07/11 09:35:36;;;;;;;1.98;0.70;;;;;;;22.33;43.51;97190.25;5038704;28;20045;-67
2022/07/11 09:38:10;;;;;;;1.77;0.40;;;;;;;22.45;43.14;97178.38;5035720;28;20060;-67
2022/07/11 09:40:37;;;;;;;2.15;0.50;;;;;;;22.32;43.21;97183.09;5035994;28;20044;-70
2022/07/11 09:43:03;;;;;;;1.17;0.40;;;;;;;22.92;42.02;97182.84;5036645;28;20041;-70
2022/07/11 09:45:33;;;;;;;2.30;0.68;;;;;;;22.40;42.88;97189.28;5049203;28;20554;-70
2022/07/11 09:48:01;;;;;;;4.55;1.63;;;;;;;22.52;44.37;97192.16;5038025;28;20397;-69
2022/07/11 09:50:30;;;;;;;2.50;0.70;;;;;;;22.84;41.46;97179.44;5043628;28;20070;-69
2022/07/11 09:53:04;;;;;;;1.17;0.30;;;;;;;21.62;42.46;97181.34;5031287;28;20450;-67
2022/07/11 09:55:36;;;;;;;5.30;0.70;;;;;;;21.08;44.24;97177.53;5028469;28;20037;-68
2022/07/11 09:58:05;;;;;;;2.35;0.80;;;;;;;22.70;42.56;97188.19;5045247;28;20068;-69
2022/07/11 10:00:31;;;;;;;12.73;4.50;;;;;;;23.42;42.11;97180.78;5045750;28;20071;-68
2022/07/11 10:02:58;;;;;;;6.72;2.00;;;;;;;23.71;42.86;97182.81;5047614;28;20041;-69
2022/07/11 10:05:24;;;;;;;7.47;2.63;;;;;;;24.78;38.75;97178.81;5046382;28;20524;-67
2022/07/11 10:07:50;;;;;;;3.20;1.08;;;;;;;24.70;37.21;97177.47;5034964;28;20064;-70
2022/07/11 10:10:16;;;;;;;10.45;2.45;;;;;;;24.99;38.22;97185.72;5036133;28;20048;-69
2022/07/11 10:12:44;;;;;;;3.25;1.20;;;;;;;25.29;38.12;97183.53;5035251;28;20049;-69
2022/07/11 10:15:11;;;;;;;1.95;0.45;;;;;;;23.48;38.41;97181.84;5029401;28;20041;-69
2022/07/11 10:17:39;;;;;;;2.45;0.43;;;;;;;22.67;41.31;97187.06;5027701;28;20043;-69
2022/07/11 10:20:14;;;;;;;5.22;0.68;;;;;;;22.70;41.20;97188.19;5028615;28;20049;-70
2022/07/11 10:22:58;;;;;;;5.45;1.70;;;;;;;24.23;38.52;97182.47;5033429;28;20151;-69
2022/07/11 10:25:35;;;;;;;1.58;0.57;;;;;;;23.82;41.89;97183.31;5030534;28;20470;-69
2022/07/11 10:28:22;;;;;;;7.13;0.50;;;;;;;23.27;42.32;97183.19;5035015;28;20099;-69
2022/07/11 10:30:52;;;;;;;2.88;0.55;;;;;;;23.29;40.50;97187.09;5033371;28;20104;-69
2022/07/11 10:33:18;;;;;;;1.58;0.35;;;;;;;22.47;41.66;97183.53;5031162;28;20124;-69
2022/07/11 10:35:46;;;;;;;1.02;0.38;;;;;;;22.17;42.34;97177.00;5034427;28;20041;-70
2022/07/11 10:38:12;;;;;;;4.22;0.75;;;;;;;22.87;44.00;97175.03;5031738;28;20401;-69
2022/07/11 10:40:49;;;;;;;2.78;0.50;;;;;;;22.76;42.23;97169.69;5036309;28;20477;-69
2022/07/11 10:43:32;;;;;;;1.75;0.60;;;;;;;23.96;41.16;97179.31;5026313;28;20041;-68
2022/07/11 10:46:00;;;;;;;4.80;0.88;;;;;;;24.37;40.97;97172.88;5036493;28;20037;-70
2022/07/11 10:48:27;;;;;;;2.20;0.52;;;;;;;24.57;37.94;97169.84;5023253;28;20103;-69
2022/07/11 10:51:11;;;;;;;3.00;1.20;;;;;;;23.73;41.69;97178.31;5036147;28;20049;-70
2022/07/11 10:53:48;;;;;;;1.73;0.30;;;;;;;22.74;39.76;97182.50;5033681;28;20046;-68
2022/07/11 10:56:30;;;;;;;1.85;0.55;;;;;;;23.50;39.36;97181.38;5027016;28;20037;-67
2022/07/11 10:59:11;;;;;;;7.15;2.00;;;;;;;24.42;37.74;97179.94;5032680;28;20041;-69
2022/07/11 11:02:10;;;;;;;3.13;0.52;;;;;;;24.51;38.31;97179.25;5032246;28;20508;-70
2022/07/11 11:04:45;;;;;;;1.33;0.40;;;;;;;25.04;37.46;97173.16;5043388;28;20083;-67
2022/07/11 11:07:43;;;;;;;3.97;1.00;;;;;;;25.12;37.99;97172.47;5039184;28;20037;-70
2022/07/11 11:10:17;;;;;;;1.05;0.38;;;;;;;23.37;40.42;97164.56;5039981;28;20056;-68
2022/07/11 11:13:05;;;;;;;0.98;0.28;;;;;;;24.03;40.63;97171.47;5044773;28;20406;-68
2022/07/11 11:15:40;;;;;;;2.58;0.50;;;;;;;23.32;39.99;97167.88;5051282;28;20048;-70
2022/07/11 11:18:24;;;;;;;4.70;0.50;;;;;;;22.95;42.15;97167.25;5025318;28;20045;-68
2022/07/11 11:21:02;;;;;;;2.17;0.30;;;;;;;22.69;40.06;97169.88;5023747;28;20465;-68
2022/07/11 11:23:32;;;;;;;2.30;0.40;;;;;;;22.57;42.26;97154.59;5054019;28;20493;-68
2022/07/11 11:26:08;;;;;;;0.43;0.32;;;;;;;22.31;42.96;97156.41;5029888;28;20060;-67
2022/07/11 11:28:35;;;;;;;0.98;0.40;;;;;;;22.84;43.49;97159.13;5022045;28;20111;-67
2022/07/11 11:31:04;;;;;;;0.75;0.28;;;;;;;22.78;42.24;97153.28;5032878;28;20124;-69
2022/07/11 11:33:32;;;;;;;1.83;0.40;;;;;;;23.62;40.01;97153.47;5032672;28;20448;-69
2022/07/11 11:36:07;;;;;;;2.25;0.40;;;;;;;22.38;42.14;97155.44;5022804;28;20491;-68